Time;durP1;ratioP1;P1;durP2;ratioP2;P2;SDS_P1;SDS_P2;PMS_P1;PMS_P2;Temp;Humidity;BMP_temperature;BMP_pressure;BME280_temperature;BME280_humidity;BME280_pressure;Samples;Min_cycle;Max_cycle;Signal;HPM_P1;HPM_P2
2023/09/09 00:03:49;;;;;;;15.35;9.93;;;;;13.50;96560.00;;;;8242473;28;20650;-65
2023/09/09 00:07:57;;;;;;;15.60;8.73;;;;;13.50;96554.00;;;;8237040;28;20205;-64
2023/09/09 00:12:04;;;;;;;15.88;9.93;;;;;13.40;96547.00;;;;8244004;28;20731;-66
2023/09/09 00:16:09;;;;;;;13.10;8.98;;;;;13.40;96552.00;;;;8245856;28;20213;-65
2023/09/09 00:20:17;;;;;;;17.27;10.05;;;;;13.30;96550.00;;;;8247484;28;20229;-66
2023/09/09 00:24:22;;;;;;;18.20;10.60;;;;;13.40;96546.00;;;;8230630;28;20426;-66
2023/09/09 00:28:25;;;;;;;16.35;10.40;;;;;13.30;96547.00;;;;8248649;28;20682;-66
2023/09/09 00:32:31;;;;;;;14.23;9.82;;;;;13.20;96545.00;;;;8284423;28;20293;-65
2023/09/09 00:36:34;;;;;;;13.43;9.18;;;;;13.10;96540.00;;;;8269584;28;20209;-65
2023/09/09 00:40:47;;;;;;;14.52;9.93;;;;;13.10;96551.00;;;;8279911;28;20753;-64
2023/09/09 00:44:50;;;;;;;17.13;10.20;;;;;13.10;96550.00;;;;8283147;28;20218;-64
2023/09/09 00:48:53;;;;;;;17.58;10.02;;;;;13.00;96545.00;;;;8292119;28;20269;-64
2023/09/09 00:53:03;;;;;;;15.52;10.10;;;;;12.90;96537.00;;;;8284542;28;20288;-65
2023/09/09 00:57:08;;;;;;;21.52;10.88;;;;;13.00;96534.00;;;;8298311;28;20227;-66
2023/09/09 01:01:14;;;;;;;18.58;10.23;;;;;12.90;96539.00;;;;8297028;28;20237;-64
2023/09/09 01:05:18;;;;;;;17.05;9.80;;;;;12.90;96540.00;;;;8297414;28;20721;-64
2023/09/09 01:09:21;;;;;;;18.05;11.43;;;;;12.80;96540.00;;;;8304887;28;20213;-65
2023/09/09 01:13:27;;;;;;;15.70;10.10;;;;;12.80;96541.00;;;;8293454;28;21120;-64
2023/09/09 01:17:31;;;;;;;23.13;11.43;;;;;12.80;96535.00;;;;8291936;28;20201;-65
2023/09/09 01:21:38;;;;;;;16.60;10.60;;;;;12.80;96533.00;;;;8299241;28;20236;-64
2023/09/09 01:25:45;;;;;;;17.20;10.35;;;;;12.70;96534.00;;;;8301705;28;20255;-65
2023/09/09 01:29:52;;;;;;;20.27;10.68;;;;;12.60;96530.00;;;;8282503;28;20205;-65
2023/09/09 01:33:57;;;;;;;18.88;10.65;;;;;12.60;96537.00;;;;8298968;28;20672;-66
2023/09/09 01:38:04;;;;;;;22.30;10.30;;;;;12.50;96530.00;;;;8288378;28;20695;-64
2023/09/09 01:42:11;;;;;;;19.13;11.52;;;;;12.50;96537.00;;;;8301314;28;20263;-65
2023/09/09 01:46:15;;;;;;;17.17;10.95;;;;;12.40;96537.00;;;;8291676;28;20684;-65
2023/09/09 01:50:18;;;;;;;18.83;9.90;;;;;12.40;96542.00;;;;8281234;28;20222;-64
2023/09/09 01:54:25;;;;;;;19.98;11.30;;;;;12.40;96543.00;;;;8287036;28;20319;-64
2023/09/09 01:58:30;;;;;;;20.15;11.40;;;;;12.40;96543.00;;;;8285690;28;20200;-65
2023/09/09 02:02:33;;;;;;;19.27;11.25;;;;;12.40;96539.00;;;;8283582;28;20230;-65
2023/09/09 02:06:43;;;;;;;19.73;11.15;;;;;12.30;96534.00;;;;8287157;28;20680;-64
2023/09/09 02:10:50;;;;;;;18.92;11.60;;;;;12.30;96527.00;;;;8284223;28;20332;-65
2023/09/09 02:14:54;;;;;;;22.77;11.07;;;;;12.20;96528.00;;;;8285337;28;20229;-64
2023/09/09 02:18:57;;;;;;;19.67;10.65;;;;;12.20;96529.00;;;;8287256;28;20547;-65
2023/09/09 02:23:03;;;;;;;17.90;10.68;;;;;12.20;96525.00;;;;8291827;28;20260;-64
2023/09/09 02:27:08;;;;;;;18.65;11.05;;;;;12.20;96525.00;;;;8280900;28;20253;-64
2023/09/09 02:31:13;;;;;;;18.70;10.63;;;;;12.20;96531.00;;;;8285173;28;20294;-65
2023/09/09 02:35:16;;;;;;;21.88;10.68;;;;;12.20;96530.00;;;;8288980;28;20860;-64
2023/09/09 02:39:21;;;;;;;19.55;11.13;;;;;12.10;96536.00;;;;8296785;28;20342;-64
2023/09/09 02:43:24;;;;;;;22.33;11.30;;;;;12.10;96534.00;;;;8289593;28;20645;-65
2023/09/09 02:47:28;;;;;;;17.17;10.70;;;;;12.10;96531.00;;;;8290157;28;20290;-65
2023/09/09 02:51:31;;;;;;;17.58;11.15;;;;;12.00;96531.00;;;;8295656;28;20940;-64
2023/09/09 02:55:36;;;;;;;17.70;10.40;;;;;12.00;96532.00;;;;8290862;28;20207;-64
2023/09/09 02:59:39;;;;;;;17.25;10.23;;;;;12.00;96525.00;;;;8287948;28;20195;-64
2023/09/09 03:03:47;;;;;;;16.60;10.65;;;;;12.00;96528.00;;;;8364831;22;20764;-63
2023/09/09 03:07:51;;;;;;;16.23;10.00;;;;;12.00;96521.00;;;;8315976;28;20198;-63
2023/09/09 03:11:56;;;;;;;19.90;11.38;;;;;11.90;96525.00;;;;8310822;28;20230;-64
2023/09/09 03:16:00;;;;;;;23.52;12.85;;;;;11.80;96524.00;;;;8301609;28;20306;-63
2023/09/09 03:20:06;;;;;;;21.30;12.10;;;;;11.80;96523.00;;;;8306318;28;20228;-63
2023/09/09 03:24:09;;;;;;;18.30;10.18;;;;;11.80;96522.00;;;;8306023;28;20199;-63
2023/09/09 03:28:16;;;;;;;18.48;11.18;;;;;11.70;96521.00;;;;8308188;28;20711;-63
2023/09/09 03:32:21;;;;;;;17.48;10.73;;;;;11.80;96524.00;;;;8311652;28;20210;-63
2023/09/09 03:36:27;;;;;;;22.52;11.23;;;;;11.80;96520.00;;;;8312045;28;20303;-64
2023/09/09 03:40:30;;;;;;;18.77;10.53;;;;;11.80;96518.00;;;;8312184;28;20680;-63
2023/09/09 03:44:34;;;;;;;22.27;10.88;;;;;11.80;96528.00;;;;8305005;28;20249;-63
2023/09/09 03:48:37;;;;;;;20.65;11.75;;;;;11.70;96527.00;;;;8311734;28;20288;-63
2023/09/09 03:52:44;;;;;;;16.90;10.70;;;;;11.80;96517.00;;;;8311469;28;20552;-64
2023/09/09 03:56:51;;;;;;;18.10;11.23;;;;;11.80;96520.00;;;;8301536;28;20207;-64
2023/09/09 04:01:05;;;;;;;21.17;11.90;;;;;11.70;96521.00;;;;8308084;28;20757;-63
2023/09/09 04:05:09;;;;;;;19.48;11.45;;;;;11.60;96531.00;;;;8308046;28;20938;-63
2023/09/09 04:09:26;;;;;;;21.00;11.32;;;;;11.50;96531.00;;;;8308526;28;20288;-64
2023/09/09 04:13:30;;;;;;;20.30;11.68;;;;;11.40;96526.00;;;;8301430;28;20213;-64
2023/09/09 04:17:36;;;;;;;19.17;10.80;;;;;11.40;96525.00;;;;8305688;28;20869;-63
2023/09/09 04:21:39;;;;;;;16.73;10.48;;;;;11.40;96538.00;;;;8296463;28;20259;-64
2023/09/09 04:25:45;;;;;;;20.52;11.27;;;;;11.40;96538.00;;;;8305152;28;20198;-62
2023/09/09 04:29:49;;;;;;;19.77;10.75;;;;;11.40;96536.00;;;;8305533;28;20290;-63
2023/09/09 04:33:52;;;;;;;20.03;10.43;;;;;11.40;96536.00;;;;8312545;28;20197;-65
2023/09/09 04:38:01;;;;;;;22.53;11.97;;;;;11.40;96531.00;;;;8309621;28;20201;-63
2023/09/09 04:42:06;;;;;;;19.67;10.93;;;;;11.30;96533.00;;;;8303054;28;20229;-62
2023/09/09 04:46:09;;;;;;;21.60;11.27;;;;;11.30;96532.00;;;;8314360;28;20205;-64
2023/09/09 04:50:13;;;;;;;22.73;11.77;;;;;11.30;96531.00;;;;8309658;28;20195;-63
2023/09/09 04:54:18;;;;;;;21.15;10.82;;;;;11.20;96530.00;;;;8312429;28;20201;-62
2023/09/09 04:58:27;;;;;;;18.08;11.18;;;;;11.30;96528.00;;;;8312470;28;20259;-63
2023/09/09 05:02:30;;;;;;;18.47;11.10;;;;;11.20;96527.00;;;;8309602;28;20360;-64
2023/09/09 05:06:33;;;;;;;20.45;10.70;;;;;11.30;96531.00;;;;8309399;28;20198;-63
2023/09/09 05:10:37;;;;;;;22.70;11.93;;;;;11.40;96542.00;;;;8310345;28;20215;-63
2023/09/09 05:14:42;;;;;;;20.33;11.65;;;;;11.60;96544.00;;;;8303076;28;20203;-63
2023/09/09 05:18:47;;;;;;;21.05;11.05;;;;;11.60;96542.00;;;;8291119;28;20651;-62
2023/09/09 05:22:51;;;;;;;19.67;11.80;;;;;11.80;96548.00;;;;8311299;28;20671;-62
2023/09/09 05:26:54;;;;;;;22.20;11.60;;;;;11.90;96546.00;;;;8304766;28;20209;-64
2023/09/09 05:30:59;;;;;;;31.25;12.13;;;;;12.00;96546.00;;;;8308770;28;20216;-63
2023/09/09 05:35:03;;;;;;;26.92;12.07;;;;;12.10;96557.00;;;;8308892;28;20230;-63
2023/09/09 05:39:06;;;;;;;22.58;12.65;;;;;12.20;96560.00;;;;8306476;28;20781;-63
2023/09/09 05:43:10;;;;;;;21.48;11.77;;;;;12.30;96562.00;;;;8313038;28;20236;-63
2023/09/09 05:47:15;;;;;;;19.85;12.10;;;;;12.40;96556.00;;;;8316064;28;20237;-62
2023/09/09 05:51:18;;;;;;;20.65;11.85;;;;;12.60;96563.00;;;;8297208;28;20199;-63
2023/09/09 05:55:21;;;;;;;17.48;10.65;;;;;12.80;96566.00;;;;8309813;28;20241;-63
2023/09/09 05:59:25;;;;;;;24.60;11.52;;;;;13.00;96574.00;;;;8301656;28;20963;-63
2023/09/09 06:03:35;;;;;;;18.38;10.50;;;;;13.20;96570.00;;;;8281788;28;20245;-63
2023/09/09 06:07:39;;;;;;;20.75;11.20;;;;;13.40;96574.00;;;;8302540;28;20196;-64
2023/09/09 06:11:44;;;;;;;20.05;12.60;;;;;13.60;96582.00;;;;8314560;28;20641;-63
2023/09/09 06:15:47;;;;;;;17.88;11.38;;;;;13.80;96574.00;;;;8299314;28;20215;-63
2023/09/09 06:19:54;;;;;;;15.73;10.80;;;;;14.10;96575.00;;;;8302638;28;20201;-64
2023/09/09 06:23:57;;;;;;;15.15;11.05;;;;;14.40;96580.00;;;;8296878;28;20249;-64
2023/09/09 06:28:02;;;;;;;16.83;10.43;;;;;14.70;96587.00;;;;8301826;28;20200;-64
2023/09/09 06:32:09;;;;;;;12.98;9.02;;;;;14.90;96590.00;;;;8304854;28;20661;-65
2023/09/09 06:36:23;;;;;;;13.98;9.80;;;;;15.10;96592.00;;;;8304376;28;20300;-65
2023/09/09 06:40:27;;;;;;;14.27;9.43;;;;;15.20;96596.00;;;;8293907;28;20253;-65
2023/09/09 06:44:30;;;;;;;15.73;9.43;;;;;15.50;96598.00;;;;8297723;28;20232;-65
2023/09/09 06:48:35;;;;;;;15.13;9.40;;;;;15.70;96598.00;;;;8307709;28;20201;-62
2023/09/09 06:52:40;;;;;;;14.70;8.98;;;;;15.90;96604.00;;;;8306207;28;20301;-63
2023/09/09 06:56:44;;;;;;;13.15;8.88;;;;;16.10;96602.00;;;;8306414;28;20286;-62
2023/09/09 07:00:53;;;;;;;14.73;9.55;;;;;16.40;96610.00;;;;8306731;28;20284;-65
2023/09/09 07:04:56;;;;;;;17.77;9.32;;;;;16.70;96613.00;;;;8305947;28;20240;-65
2023/09/09 07:09:02;;;;;;;18.75;10.20;;;;;17.10;96617.00;;;;8299768;28;20189;-66
2023/09/09 07:13:05;;;;;;;18.55;9.98;;;;;17.40;96617.00;;;;8289986;28;20206;-64
2023/09/09 07:17:12;;;;;;;15.05;9.75;;;;;17.80;96614.00;;;;8296802;28;20477;-67
2023/09/09 07:21:17;;;;;;;18.33;10.90;;;;;18.10;96619.00;;;;8303799;28;20230;-66
2023/09/09 07:25:25;;;;;;;12.48;9.35;;;;;18.50;96618.00;;;;8308179;28;20208;-64
2023/09/09 07:29:28;;;;;;;12.77;9.07;;;;;18.80;96613.00;;;;8311589;28;20614;-64
2023/09/09 07:33:32;;;;;;;13.60;9.18;;;;;19.20;96611.00;;;;8313041;28;20240;-64
2023/09/09 07:37:35;;;;;;;18.63;9.18;;;;;19.50;96608.00;;;;8309560;28;20201;-64
2023/09/09 07:41:44;;;;;;;12.05;8.90;;;;;19.80;96603.00;;;;8305419;28;20225;-64
2023/09/09 07:45:48;;;;;;;14.07;8.70;;;;;20.30;96603.00;;;;8308810;28;20206;-64
2023/09/09 07:49:51;;;;;;;13.95;8.25;;;;;21.00;96605.00;;;;8312774;28;20720;-64
2023/09/09 07:53:54;;;;;;;10.13;8.20;;;;;21.60;96623.00;;;;8311423;28;20209;-64
2023/09/09 07:57:59;;;;;;;12.07;8.20;;;;;22.00;96628.00;;;;8312297;28;20232;-64
2023/09/09 08:02:05;;;;;;;11.48;7.80;;;;;22.60;96628.00;;;;8295362;28;20591;-64
2023/09/09 08:06:12;;;;;;;10.20;7.28;;;;;23.10;96632.00;;;;8311801;28;20279;-66
2023/09/09 08:10:16;;;;;;;10.07;7.35;;;;;23.50;96637.00;;;;8312911;28;20228;-65
2023/09/09 08:14:24;;;;;;;10.90;7.43;;;;;23.90;96630.00;;;;8311753;28;21170;-65
2023/09/09 08:18:27;;;;;;;11.25;7.35;;;;;24.50;96633.00;;;;8292679;28;20206;-65
2023/09/09 08:22:30;;;;;;;10.80;7.70;;;;;25.20;96629.00;;;;8292928;28;20237;-65
2023/09/09 08:26:34;;;;;;;10.35;7.30;;;;;25.80;96631.00;;;;8312496;28;20193;-64
2023/09/09 08:30:38;;;;;;;8.18;6.70;;;;;26.30;96634.00;;;;8312525;28;20190;-64
2023/09/09 08:34:44;;;;;;;11.10;7.13;;;;;26.80;96641.00;;;;8305857;28;20198;-65
2023/09/09 08:38:47;;;;;;;13.25;7.15;;;;;27.20;96644.00;;;;8304305;28;20668;-64
2023/09/09 08:43:03;;;;;;;14.82;7.00;;;;;27.40;96645.00;;;;8305968;28;20328;-65
2023/09/09 08:47:07;;;;;;;11.75;7.57;;;;;27.60;96649.00;;;;8311823;28;20208;-64
2023/09/09 08:51:15;;;;;;;11.60;7.53;;;;;27.80;96657.00;;;;8311667;28;20296;-65
2023/09/09 08:55:18;;;;;;;7.95;6.57;;;;;27.90;96663.00;;;;8308990;28;20202;-64
2023/09/09 08:59:25;;;;;;;8.23;6.70;;;;;28.30;96658.00;;;;8295957;28;20263;-65
2023/09/09 09:03:33;;;;;;;9.45;6.45;;;;;28.40;96659.00;;;;8299563;28;20256;-65
2023/09/09 09:07:39;;;;;;;9.95;6.78;;;;;28.70;96661.00;;;;8293537;28;20200;-64
2023/09/09 09:11:46;;;;;;;12.73;7.38;;;;;29.10;96661.00;;;;8293522;28;20612;-64
2023/09/09 09:15:49;;;;;;;14.20;6.53;;;;;29.50;96657.00;;;;8309329;28;20212;-65
2023/09/09 09:19:54;;;;;;;9.35;6.72;;;;;30.10;96655.00;;;;8313659;28;20194;-65
2023/09/09 09:24:01;;;;;;;7.90;6.63;;;;;30.40;96654.00;;;;8309173;28;20232;-65
2023/09/09 09:28:05;;;;;;;13.73;6.40;;;;;30.70;96658.00;;;;8303652;28;20228;-65
2023/09/09 09:32:10;;;;;;;8.68;6.78;;;;;30.90;96656.00;;;;8313209;28;20207;-65
2023/09/09 09:36:18;;;;;;;9.85;7.05;;;;;31.10;96653.00;;;;8310179;28;20197;-65
2023/09/09 09:40:21;;;;;;;8.05;6.53;;;;;31.30;96656.00;;;;8310222;28;20205;-65
2023/09/09 09:44:25;;;;;;;9.77;6.85;;;;;31.50;96655.00;;;;8305981;28;20974;-63
2023/09/09 09:48:30;;;;;;;8.63;6.32;;;;;31.40;96652.00;;;;8315221;28;20193;-63
2023/09/09 09:52:35;;;;;;;12.63;6.20;;;;;31.50;96656.00;;;;8303025;28;20297;-62
2023/09/09 09:56:44;;;;;;;7.05;6.10;;;;;31.70;96652.00;;;;8312934;28;20202;-63
2023/09/09 10:00:47;;;;;;;9.82;6.90;;;;;31.80;96652.00;;;;8310549;28;20631;-64
2023/09/09 10:04:52;;;;;;;9.48;6.85;;;;;31.70;96648.00;;;;8313357;28;20233;-63
2023/09/09 10:09:08;;;;;;;10.85;6.45;;;;;31.60;96649.00;;;;8313800;28;20212;-64
2023/09/09 10:13:19;;;;;;;7.65;6.53;;;;;31.80;96652.00;;;;8312051;28;20288;-64
2023/09/09 10:17:25;;;;;;;10.90;6.72;;;;;31.90;96655.00;;;;8301740;28;20190;-64
2023/09/09 10:21:31;;;;;;;9.18;7.20;;;;;32.10;96654.00;;;;8304197;28;20555;-64
2023/09/09 10:25:48;;;;;;;7.10;6.25;;;;;32.10;96651.00;;;;8305585;28;20741;-64
2023/09/09 10:29:54;;;;;;;9.38;6.32;;;;;32.30;96647.00;;;;8291179;28;20204;-64
2023/09/09 10:34:00;;;;;;;9.57;6.70;;;;;32.40;96639.00;;;;8306579;28;20256;-64
2023/09/09 10:38:07;;;;;;;9.85;7.10;;;;;32.40;96644.00;;;;8305242;28;20198;-65
2023/09/09 10:42:12;;;;;;;10.02;7.45;;;;;32.30;96639.00;;;;8307986;28;20202;-65
2023/09/09 10:46:15;;;;;;;12.43;7.18;;;;;32.20;96635.00;;;;8312250;28;20244;-65
2023/09/09 10:50:22;;;;;;;8.98;7.10;;;;;32.20;96627.00;;;;8311860;28;20197;-64
2023/09/09 10:54:27;;;;;;;8.93;7.07;;;;;32.00;96627.00;;;;8299800;28;20264;-65
2023/09/09 10:58:38;;;;;;;8.95;6.97;;;;;31.90;96629.00;;;;8313259;28;21080;-63
2023/09/09 11:02:46;;;;;;;11.43;7.15;;;;;31.80;96627.00;;;;8295028;28;20229;-64
2023/09/09 11:07:09;;;;;;;8.60;7.28;;;;;31.70;96629.00;;;;8297658;28;20308;-64
2023/09/09 11:11:14;;;;;;;8.43;6.97;;;;;31.80;96632.00;;;;8291949;28;20283;-65
2023/09/09 11:15:19;;;;;;;7.28;6.53;;;;;32.00;96627.00;;;;8296222;28;20780;-66
2023/09/09 11:19:25;;;;;;;8.20;6.63;;;;;32.10;96624.00;;;;8300757;28;20712;-66
2023/09/09 11:23:36;;;;;;;12.02;6.90;;;;;32.00;96624.00;;;;8310249;28;20941;-66
2023/09/09 11:27:41;;;;;;;7.45;6.38;;;;;32.20;96631.00;;;;8316427;28;20206;-66
2023/09/09 11:31:53;;;;;;;11.98;6.18;;;;;32.30;96630.00;;;;8298663;28;20618;-66
2023/09/09 11:35:56;;;;;;;9.13;6.38;;;;;32.40;96630.00;;;;8305143;28;20870;-66
2023/09/09 11:40:00;;;;;;;9.02;6.28;;;;;32.30;96619.00;;;;8310537;28;20660;-66
2023/09/09 11:44:07;;;;;;;6.70;5.90;;;;;32.30;96616.00;;;;8296785;28;20272;-66
2023/09/09 11:48:14;;;;;;;7.95;5.68;;;;;32.30;96611.00;;;;8311068;28;20296;-69
2023/09/09 11:52:22;;;;;;;8.20;5.75;;;;;32.10;96612.00;;;;8309451;28;20197;-70
2023/09/09 11:56:25;;;;;;;6.32;5.63;;;;;31.90;96609.00;;;;8303905;28;20566;-68
2023/09/09 12:00:33;;;;;;;8.82;6.30;;;;;31.70;96616.00;;;;8300069;28;20241;-69
2023/09/09 12:04:37;;;;;;;7.25;6.10;;;;;31.40;96610.00;;;;8290275;28;20295;-68
2023/09/09 12:08:42;;;;;;;7.90;6.43;;;;;31.20;96608.00;;;;8275643;28;20206;-68
2023/09/09 12:12:47;;;;;;;7.13;6.00;;;;;30.90;96606.00;;;;8302532;28;20202;-68
2023/09/09 12:16:50;;;;;;;6.22;5.63;;;;;30.80;96603.00;;;;8300009;28;20307;-67
2023/09/09 12:21:06;;;;;;;8.65;6.10;;;;;30.80;96604.00;;;;8290516;28;20277;-68
2023/09/09 12:25:29;;;;;;;9.25;6.20;;;;;30.50;96607.00;;;;8295896;28;20229;-70
2023/09/09 12:29:33;;;;;;;7.95;6.30;;;;;30.10;96604.00;;;;8312619;28;20863;-70
2023/09/09 12:33:45;;;;;;;7.82;6.10;;;;;29.70;96600.00;;;;8309302;28;20225;-70
2023/09/09 12:37:49;;;;;;;7.22;6.22;;;;;29.40;96605.00;;;;8296878;28;20293;-70
2023/09/09 12:42:04;;;;;;;9.55;6.38;;;;;29.10;96601.00;;;;8283163;28;20289;-70
2023/09/09 12:46:13;;;;;;;8.10;6.40;;;;;29.00;96603.00;;;;8287881;28;20260;-70
2023/09/09 12:50:21;;;;;;;9.48;6.45;;;;;29.00;96610.00;;;;8314623;28;20197;-69
2023/09/09 12:54:30;;;;;;;10.07;6.35;;;;;29.10;96605.00;;;;8311074;28;21039;-70
2023/09/09 12:58:33;;;;;;;6.97;6.18;;;;;29.20;96602.00;;;;8305258;28;20198;-70
2023/09/09 13:02:38;;;;;;;6.32;5.72;;;;;29.50;96599.00;;;;8306064;28;20229;-70
2023/09/09 13:06:41;;;;;;;8.48;6.55;;;;;29.80;96601.00;;;;8323179;28;20257;-70
2023/09/09 13:10:48;;;;;;;6.93;5.80;;;;;29.90;96604.00;;;;8316152;28;20706;-70
2023/09/09 13:14:51;;;;;;;11.32;6.20;;;;;30.00;96599.00;;;;8318613;28;20205;-70
2023/09/09 13:18:55;;;;;;;7.85;5.95;;;;;30.10;96587.00;;;;8319751;28;20702;-70
2023/09/09 13:22:58;;;;;;;7.07;5.70;;;;;30.40;96591.00;;;;8304889;28;20193;-78
2023/09/09 13:27:07;;;;;;;8.32;6.18;;;;;30.50;96588.00;;;;8296815;28;20226;-71
2023/09/09 13:31:13;;;;;;;7.88;5.65;;;;;30.50;96607.00;;;;8300257;28;20201;-70
2023/09/09 13:35:16;;;;;;;6.00;5.40;;;;;30.60;96598.00;;;;8309543;28;21051;-71
2023/09/09 13:39:20;;;;;;;7.05;5.80;;;;;30.80;96594.00;;;;8303581;28;20878;-71
2023/09/09 13:43:25;;;;;;;8.20;5.97;;;;;31.00;96589.00;;;;8310059;28;20208;-71
2023/09/09 13:47:28;;;;;;;7.70;5.75;;;;;31.40;96583.00;;;;8315399;28;20468;-72
2023/09/09 13:51:34;;;;;;;6.43;5.82;;;;;32.10;96585.00;;;;8308249;28;20213;-71
2023/09/09 13:55:43;;;;;;;6.72;5.80;;;;;32.60;96576.00;;;;8307844;28;20288;-71
2023/09/09 13:59:48;;;;;;;6.60;5.90;;;;;32.70;96584.00;;;;8306942;28;20212;-69
2023/09/09 14:03:51;;;;;;;8.23;5.78;;;;;32.90;96576.00;;;;8300284;28;20705;-70
2023/09/09 14:07:54;;;;;;;7.18;5.40;;;;;33.40;96575.00;;;;8298368;28;20206;-69
2023/09/09 14:11:58;;;;;;;6.68;5.97;;;;;33.80;96573.00;;;;8295744;28;20203;-70
2023/09/09 14:16:05;;;;;;;6.95;5.40;;;;;34.20;96567.00;;;;8302115;28;20206;-69
2023/09/09 14:20:10;;;;;;;6.93;5.85;;;;;34.20;96571.00;;;;8295707;28;20248;-70
2023/09/09 14:24:13;;;;;;;6.18;5.57;;;;;34.30;96565.00;;;;8290995;28;20225;-71
2023/09/09 14:28:18;;;;;;;8.15;5.80;;;;;34.30;96565.00;;;;8301648;28;20209;-75
2023/09/09 14:32:31;;;;;;;5.65;5.15;;;;;34.40;96573.00;;;;8293431;28;20543;-67
2023/09/09 14:36:34;;;;;;;6.10;5.60;;;;;34.40;96560.00;;;;8305409;28;20292;-70
2023/09/09 14:40:37;;;;;;;8.65;5.65;;;;;34.40;96560.00;;;;8287832;28;20635;-71
2023/09/09 14:44:48;;;;;;;9.60;6.30;;;;;34.40;96555.00;;;;8308576;28;20638;-71
2023/09/09 14:48:58;;;;;;;6.72;5.15;;;;;34.40;96559.00;;;;8298773;28;20676;-71
2023/09/09 14:53:03;;;;;;;6.78;5.88;;;;;34.00;96559.00;;;;8304424;28;20257;-71
2023/09/09 14:57:08;;;;;;;8.65;6.13;;;;;33.70;96554.00;;;;8288709;28;20208;-71
2023/09/09 15:01:14;;;;;;;11.20;5.85;;;;;33.50;96562.00;;;;8297941;28;20209;-71
2023/09/09 15:05:20;;;;;;;8.30;5.28;;;;;33.10;96560.00;;;;8312938;28;20256;-71
2023/09/09 15:09:25;;;;;;;9.73;6.10;;;;;33.00;96560.00;;;;8313567;28;20614;-70
2023/09/09 15:13:28;;;;;;;8.65;5.68;;;;;32.80;96562.00;;;;8309827;28;20201;-71
2023/09/09 15:17:36;;;;;;;7.22;5.82;;;;;32.70;96560.00;;;;8295368;28;20207;-70
2023/09/09 15:21:46;;;;;;;7.50;6.05;;;;;32.70;96552.00;;;;8302139;28;20205;-70
2023/09/09 15:25:52;;;;;;;6.63;5.55;;;;;32.50;96550.00;;;;8314096;28;20227;-71
2023/09/09 15:29:55;;;;;;;8.52;6.40;;;;;32.60;96557.00;;;;8315582;28;20694;-71
2023/09/09 15:34:03;;;;;;;7.47;5.15;;;;;32.70;96559.00;;;;8308295;28;20201;-70
2023/09/09 15:38:08;;;;;;;7.88;5.38;;;;;32.80;96566.00;;;;8308634;28;20949;-71
2023/09/09 15:42:13;;;;;;;7.68;5.85;;;;;32.90;96562.00;;;;8313808;28;20364;-73
2023/09/09 15:46:18;;;;;;;6.45;5.82;;;;;33.10;96563.00;;;;8312935;28;20367;-71
2023/09/09 15:50:23;;;;;;;6.47;5.80;;;;;33.10;96560.00;;;;8313098;28;20594;-71
2023/09/09 15:54:31;;;;;;;8.40;5.55;;;;;33.00;96565.00;;;;8313392;28;20198;-72
2023/09/09 15:58:39;;;;;;;8.90;5.80;;;;;32.80;96563.00;;;;8309787;28;21025;-71
2023/09/09 16:02:45;;;;;;;7.85;5.88;;;;;32.80;96555.00;;;;8294670;28;20218;-72
2023/09/09 16:06:48;;;;;;;6.47;5.35;;;;;32.80;96556.00;;;;8278418;28;20232;-73
2023/09/09 16:11:02;;;;;;;5.88;5.28;;;;;33.00;96552.00;;;;8305085;28;20228;-71
2023/09/09 16:15:07;;;;;;;7.90;6.07;;;;;33.40;96549.00;;;;8313600;28;20264;-72
2023/09/09 16:19:10;;;;;;;5.88;5.28;;;;;33.60;96557.00;;;;8314798;28;20208;-71
2023/09/09 16:23:18;;;;;;;11.00;5.43;;;;;33.80;96554.00;;;;8300252;28;20208;-71
2023/09/09 16:27:23;;;;;;;7.18;5.20;;;;;34.00;96555.00;;;;8309032;28;20225;-72
2023/09/09 16:31:27;;;;;;;7.25;5.68;;;;;34.10;96554.00;;;;8286584;28;20208;-73
2023/09/09 16:35:31;;;;;;;7.07;5.40;;;;;34.00;96560.00;;;;8309668;28;20260;-71
2023/09/09 16:39:35;;;;;;;6.30;5.70;;;;;33.40;96560.00;;;;8291713;28;20292;-71
2023/09/09 16:43:40;;;;;;;6.32;5.35;;;;;32.60;96561.00;;;;8312201;28;20634;-73
2023/09/09 16:47:43;;;;;;;12.55;5.90;;;;;31.70;96562.00;;;;8311751;28;20240;-71
2023/09/09 16:51:46;;;;;;;7.75;5.80;;;;;31.00;96560.00;;;;8312381;28;20279;-67
2023/09/09 16:55:54;;;;;;;8.25;5.70;;;;;30.40;96557.00;;;;8309111;28;20225;-68
2023/09/09 16:59:58;;;;;;;9.48;5.78;;;;;29.70;96557.00;;;;8299013;28;20247;-68
2023/09/09 17:04:02;;;;;;;7.82;5.75;;;;;29.10;96563.00;;;;8302752;28;20234;-68
2023/09/09 17:08:05;;;;;;;7.28;6.45;;;;;28.40;96562.00;;;;8308041;28;20225;-68
2023/09/09 17:12:09;;;;;;;8.07;6.03;;;;;27.70;96566.00;;;;8296838;28;20633;-68
2023/09/09 17:16:18;;;;;;;7.22;6.47;;;;;27.00;96574.00;;;;8301983;28;20206;-67
2023/09/09 17:20:22;;;;;;;10.20;6.80;;;;;26.40;96575.00;;;;8294931;28;20687;-68
2023/09/09 17:24:25;;;;;;;13.65;6.97;;;;;25.80;96576.00;;;;8302602;28;20288;-68
2023/09/09 17:28:29;;;;;;;8.48;6.43;;;;;25.40;96571.00;;;;8300944;28;20875;-67
2023/09/09 17:32:34;;;;;;;11.60;7.30;;;;;24.90;96563.00;;;;8306477;28;20199;-67
2023/09/09 17:36:43;;;;;;;11.73;6.68;;;;;24.60;96571.00;;;;8305414;28;20275;-68
2023/09/09 17:40:48;;;;;;;13.07;6.53;;;;;24.30;96567.00;;;;8315763;28;20317;-67
2023/09/09 17:44:53;;;;;;;12.35;7.03;;;;;24.00;96574.00;;;;8310055;28;20304;-67
2023/09/09 17:49:02;;;;;;;12.23;6.95;;;;;23.60;96575.00;;;;8304865;28;20607;-67
2023/09/09 17:53:07;;;;;;;10.52;6.15;;;;;23.30;96566.00;;;;8300713;28;20237;-66
2023/09/09 17:57:11;;;;;;;8.63;6.53;;;;;23.00;96574.00;;;;8284377;28;20236;-66
2023/09/09 18:01:14;;;;;;;10.48;7.03;;;;;22.80;96583.00;;;;8298265;28;20288;-67
2023/09/09 18:05:19;;;;;;;8.90;7.40;;;;;22.60;96584.00;;;;8292473;28;20218;-66
2023/09/09 18:09:22;;;;;;;10.98;7.57;;;;;22.40;96589.00;;;;8311561;28;20190;-67
2023/09/09 18:13:26;;;;;;;12.05;7.05;;;;;22.20;96592.00;;;;8309115;28;20227;-67
2023/09/09 18:17:29;;;;;;;11.30;7.60;;;;;22.00;96594.00;;;;8295473;28;20249;-67
2023/09/09 18:21:35;;;;;;;12.75;7.88;;;;;21.90;96597.00;;;;8312350;28;20197;-67
2023/09/09 18:25:44;;;;;;;8.60;6.90;;;;;21.70;96598.00;;;;8307842;28;20226;-66
2023/09/09 18:29:49;;;;;;;10.15;7.25;;;;;21.60;96608.00;;;;8314693;28;21923;-67
2023/09/09 18:33:52;;;;;;;11.65;7.35;;;;;21.50;96607.00;;;;8302229;28;20289;-66
2023/09/09 18:37:59;;;;;;;14.40;7.72;;;;;21.40;96614.00;;;;8298296;28;20197;-67
2023/09/09 18:42:05;;;;;;;9.48;7.68;;;;;21.30;96607.00;;;;8292306;28;20252;-67
2023/09/09 18:46:10;;;;;;;16.15;8.02;;;;;21.20;96609.00;;;;8301428;28;20322;-66
2023/09/09 18:50:14;;;;;;;15.55;8.75;;;;;21.10;96614.00;;;;8303655;28;20556;-66
2023/09/09 18:54:24;;;;;;;11.02;7.13;;;;;20.90;96606.00;;;;8313397;28;20204;-66
2023/09/09 18:58:29;;;;;;;14.02;7.80;;;;;20.70;96611.00;;;;8287735;28;20205;-67
2023/09/09 19:02:35;;;;;;;9.52;7.03;;;;;20.40;96619.00;;;;8297601;28;20271;-67
2023/09/09 19:06:40;;;;;;;10.75;8.10;;;;;20.10;96616.00;;;;8292812;28;20228;-67
2023/09/09 19:10:45;;;;;;;12.23;8.90;;;;;20.00;96614.00;;;;8313379;28;20281;-66
2023/09/09 19:14:49;;;;;;;10.70;8.57;;;;;19.90;96617.00;;;;8313204;28;20201;-67
2023/09/09 19:18:53;;;;;;;12.10;8.75;;;;;19.70;96630.00;;;;8296079;28;20194;-68
2023/09/09 19:22:57;;;;;;;16.90;10.07;;;;;19.60;96624.00;;;;8316341;28;20232;-67
2023/09/09 19:27:03;;;;;;;16.98;10.07;;;;;19.50;96625.00;;;;8309414;28;20600;-67
2023/09/09 19:31:07;;;;;;;12.63;8.52;;;;;19.40;96623.00;;;;8308529;28;20233;-67
2023/09/09 19:35:10;;;;;;;15.85;9.18;;;;;19.30;96632.00;;;;8315632;28;20283;-67
2023/09/09 19:39:14;;;;;;;16.85;11.00;;;;;19.30;96626.00;;;;8315045;28;20197;-67
2023/09/09 19:43:19;;;;;;;18.10;11.82;;;;;19.20;96631.00;;;;8306498;28;20277;-67
2023/09/09 19:47:25;;;;;;;13.60;9.70;;;;;19.20;96625.00;;;;8305217;28;20320;-68
2023/09/09 19:51:30;;;;;;;16.55;10.80;;;;;19.10;96628.00;;;;8298507;28;20197;-68
2023/09/09 19:55:33;;;;;;;15.35;10.45;;;;;18.90;96629.00;;;;8306071;28;20205;-68
2023/09/09 19:59:38;;;;;;;17.83;11.68;;;;;18.80;96629.00;;;;8294668;28;20653;-67
2023/09/09 20:03:45;;;;;;;18.17;10.63;;;;;18.70;96636.00;;;;8312639;28;20368;-68
2023/09/09 20:07:52;;;;;;;22.83;13.57;;;;;18.70;96636.00;;;;8298479;28;20640;-67
2023/09/09 20:12:02;;;;;;;18.33;12.07;;;;;18.60;96636.00;;;;8306176;28;20259;-67
2023/09/09 20:16:11;;;;;;;14.98;10.75;;;;;18.50;96637.00;;;;8306722;28;20214;-67